Time;durP1;ratioP1;P1;durP2;ratioP2;P2;SDS_P1;SDS_P2;PMS_P1;PMS_P2;Temp;Humidity;BMP_temperature;BMP_pressure;BME280_temperature;BME280_humidity;BME280_pressure;Samples;Min_cycle;Max_cycle;Signal;HPM_P1;HPM_P2
2021/03/06 00:00:11;;;;;;;13.05;5.72;;;-2.00;99.90;;;;;;5052226;28;20036;-72
2021/03/06 00:02:38;;;;;;;11.05;4.60;;;-2.00;99.90;;;;;;5052304;28;20515;-72
2021/03/06 00:05:06;;;;;;;12.57;5.70;;;-2.10;99.90;;;;;;5054506;28;20035;-72
2021/03/06 00:07:32;;;;;;;12.02;4.57;;;-2.10;99.90;;;;;;5036377;28;20029;-72
2021/03/06 00:09:57;;;;;;;13.32;5.07;;;-2.10;99.90;;;;;;5054754;28;20029;-72
2021/03/06 00:12:23;;;;;;;13.93;6.25;;;-2.20;99.90;;;;;;5055367;28;20032;-72
2021/03/06 00:14:49;;;;;;;13.95;5.78;;;-2.10;99.90;;;;;;5053873;28;20554;-72
2021/03/06 00:17:14;;;;;;;12.10;5.38;;;-2.10;99.90;;;;;;5051206;28;20048;-71
2021/03/06 00:19:40;;;;;;;10.93;4.97;;;-2.00;99.90;;;;;;5055319;28;20042;-72
2021/03/06 00:22:06;;;;;;;10.93;4.82;;;-2.00;99.90;;;;;;5055654;28;20036;-72
2021/03/06 00:24:32;;;;;;;13.50;5.00;;;-2.10;99.90;;;;;;5048573;28;20127;-72
2021/03/06 00:26:57;;;;;;;9.98;4.63;;;-2.20;99.90;;;;;;5054732;28;20036;-72
2021/03/06 00:29:23;;;;;;;10.73;4.70;;;-2.20;99.90;;;;;;5053531;28;20064;-72
2021/03/06 00:31:49;;;;;;;13.52;5.10;;;-2.20;99.90;;;;;;5053088;28;20048;-72
2021/03/06 00:34:15;;;;;;;12.07;4.05;;;-2.20;99.90;;;;;;5054790;28;20044;-71
2021/03/06 00:36:41;;;;;;;8.98;5.22;;;-2.30;99.90;;;;;;5036760;28;20040;-72
2021/03/06 00:39:07;;;;;;;10.82;4.13;;;-2.30;99.90;;;;;;5056044;28;20040;-72
2021/03/06 00:41:33;;;;;;;10.55;4.20;;;-2.30;99.90;;;;;;5039877;28;20043;-72
2021/03/06 00:44:00;;;;;;;9.70;4.63;;;-2.40;99.90;;;;;;5056277;28;20034;-72
2021/03/06 00:46:27;;;;;;;11.48;5.03;;;-2.50;99.90;;;;;;5038809;28;20029;-72
2021/03/06 00:48:53;;;;;;;7.35;4.20;;;-2.40;99.90;;;;;;5057945;28;20029;-72
2021/03/06 00:51:21;;;;;;;8.15;4.30;;;-2.50;99.90;;;;;;5056514;28;20086;-72
2021/03/06 00:53:47;;;;;;;8.00;4.00;;;-2.40;99.90;;;;;;5055901;28;20047;-72
2021/03/06 00:56:13;;;;;;;10.43;4.40;;;-2.40;99.90;;;;;;5056433;28;20484;-72
2021/03/06 00:58:39;;;;;;;6.57;3.60;;;-2.20;99.90;;;;;;5040559;28;20033;-72
2021/03/06 01:01:10;;;;;;;11.82;4.47;;;-2.20;99.90;;;;;;5056499;28;20042;-72
2021/03/06 01:03:36;;;;;;;10.38;4.43;;;-2.00;99.90;;;;;;5039636;28;20040;-72
2021/03/06 01:06:03;;;;;;;9.02;4.07;;;-2.00;99.90;;;;;;5057005;28;20035;-72
2021/03/06 01:08:29;;;;;;;9.73;4.00;;;-1.90;99.90;;;;;;5058130;28;20070;-73
2021/03/06 01:10:55;;;;;;;8.07;3.97;;;-1.80;99.90;;;;;;5040138;28;20032;-72
2021/03/06 01:13:22;;;;;;;8.75;4.18;;;-1.90;99.90;;;;;;5038858;28;20040;-73
2021/03/06 01:15:48;;;;;;;7.75;4.00;;;-2.00;99.90;;;;;;5057030;28;20033;-72
2021/03/06 01:18:13;;;;;;;9.57;3.70;;;-2.20;99.90;;;;;;5057099;28;20682;-72
2021/03/06 01:20:40;;;;;;;8.63;3.88;;;-2.40;99.90;;;;;;5039888;28;20660;-72
2021/03/06 01:23:06;;;;;;;9.45;3.70;;;-2.40;99.90;;;;;;5057230;28;20790;-72
2021/03/06 01:25:32;;;;;;;11.85;4.32;;;-2.40;99.90;;;;;;5057358;28;20128;-72
2021/03/06 01:27:57;;;;;;;5.97;3.60;;;-2.30;99.90;;;;;;5055935;28;20056;-72
2021/03/06 01:30:25;;;;;;;11.43;3.83;;;-2.30;99.90;;;;;;5055854;28;20025;-72
2021/03/06 01:32:51;;;;;;;9.55;3.75;;;-2.30;99.90;;;;;;5057223;28;20047;-72
2021/03/06 01:35:21;;;;;;;7.00;3.20;;;-2.30;99.90;;;;;;5054528;28;20044;-71
2021/03/06 01:37:47;;;;;;;10.18;3.72;;;-2.50;99.90;;;;;;5055208;28;20094;-72
2021/03/06 01:40:16;;;;;;;7.35;3.78;;;-2.60;99.90;;;;;;5057100;28;20520;-71
2021/03/06 01:42:42;;;;;;;11.75;5.05;;;-2.70;99.90;;;;;;5056152;28;20060;-72
2021/03/06 01:45:09;;;;;;;6.93;3.70;;;-2.70;99.90;;;;;;5056186;28;20052;-72
2021/03/06 01:47:35;;;;;;;7.65;3.20;;;-2.80;99.90;;;;;;5053968;28;20100;-72
2021/03/06 01:50:03;;;;;;;7.28;3.63;;;-2.80;99.90;;;;;;5037951;28;20847;-72
2021/03/06 01:52:29;;;;;;;6.30;3.40;;;-2.90;99.90;;;;;;5056508;28;20039;-72
2021/03/06 01:54:56;;;;;;;7.97;3.80;;;-2.90;99.90;;;;;;5038047;28;20028;-72
2021/03/06 01:57:23;;;;;;;13.43;3.92;;;-2.90;99.90;;;;;;5055985;28;20512;-72
2021/03/06 01:59:48;;;;;;;8.85;3.90;;;-2.90;99.90;;;;;;5056065;28;20044;-72
2021/03/06 02:02:15;;;;;;;7.97;3.03;;;-2.80;99.90;;;;;;5056362;28;20033;-72
2021/03/06 02:04:41;;;;;;;7.10;3.42;;;-2.70;99.90;;;;;;5055108;28;20036;-72
2021/03/06 02:07:07;;;;;;;9.18;3.58;;;-2.60;99.90;;;;;;5055633;28;20033;-72
2021/03/06 02:09:32;;;;;;;6.75;3.50;;;-2.60;99.90;;;;;;5038463;28;20048;-72
2021/03/06 02:12:28;;;;;;;8.93;3.40;;;-2.60;99.90;;;;;;5050555;28;20102;-72
2021/03/06 02:15:04;;;;;;;6.75;3.38;;;-2.50;99.90;;;;;;4999499;28;20508;-72
2021/03/06 02:17:29;;;;;;;8.95;3.35;;;-2.50;99.90;;;;;;5056309;28;20107;-72
2021/03/06 02:20:22;;;;;;;7.05;3.42;;;-2.50;99.90;;;;;;5054771;28;20040;-72
2021/03/06 02:23:09;;;;;;;9.75;3.45;;;-2.40;99.90;;;;;;5037990;28;20094;-71
2021/03/06 02:25:54;;;;;;;6.00;3.10;;;-2.50;99.90;;;;;;5055864;28;20047;-72
2021/03/06 02:28:57;;;;;;;6.37;2.60;;;-2.70;99.90;;;;;;5055176;28;20025;-71
2021/03/06 02:31:25;;;;;;;10.15;3.42;;;-2.80;99.90;;;;;;5056158;28;20261;-71
2021/03/06 02:34:01;;;;;;;10.43;3.58;;;-2.80;99.90;;;;;;5054437;28;20043;-72
2021/03/06 02:36:27;;;;;;;7.43;3.65;;;-2.80;99.90;;;;;;5054540;28;20037;-71
2021/03/06 02:38:56;;;;;;;13.88;3.40;;;-2.70;99.90;;;;;;5037627;28;20154;-74
2021/03/06 02:41:25;;;;;;;5.18;3.10;;;-2.60;99.90;;;;;;5054744;28;20849;-71
2021/03/06 02:43:53;;;;;;;8.20;3.53;;;-2.40;99.90;;;;;;5055615;28;20067;-71
2021/03/06 02:46:23;;;;;;;12.23;3.05;;;-2.40;99.90;;;;;;5053626;28;20544;-72
2021/03/06 02:48:49;;;;;;;5.80;3.08;;;-2.40;99.90;;;;;;5055699;28;20044;-72
2021/03/06 02:51:15;;;;;;;9.07;3.58;;;-2.50;99.90;;;;;;5053842;28;20127;-71
2021/03/06 02:53:41;;;;;;;6.80;3.30;;;-2.60;99.90;;;;;;5032413;28;20051;-71
2021/03/06 02:56:07;;;;;;;7.95;3.70;;;-2.70;99.90;;;;;;5055308;28;20064;-71
2021/03/06 02:58:51;;;;;;;14.38;3.72;;;-2.80;99.90;;;;;;5037025;28;20164;-71
2021/03/06 03:01:22;;;;;;;5.88;3.33;;;-2.80;99.90;;;;;;5055187;28;20036;-71
2021/03/06 03:03:56;;;;;;;9.43;3.80;;;-2.90;99.90;;;;;;5054123;28;20043;-72
2021/03/06 03:06:38;;;;;;;7.95;3.35;;;-2.90;99.90;;;;;;5053828;28;20031;-71
2021/03/06 03:09:19;;;;;;;11.23;3.85;;;-2.90;99.90;;;;;;5036769;28;20119;-71
2021/03/06 03:11:51;;;;;;;7.53;3.38;;;-2.80;99.90;;;;;;5038285;28;20036;-71
2021/03/06 03:14:39;;;;;;;6.72;3.58;;;-2.80;99.90;;;;;;5053602;28;20114;-71
2021/03/06 03:17:13;;;;;;;13.73;3.95;;;-2.80;99.90;;;;;;5055090;28;20051;-71
2021/03/06 03:20:02;;;;;;;9.55;3.88;;;-2.60;99.90;;;;;;5054451;28;20098;-71
2021/03/06 03:22:36;;;;;;;9.27;3.95;;;-2.60;99.90;;;;;;5053228;28;20123;-71
2021/03/06 03:25:06;;;;;;;7.75;3.90;;;-2.70;99.90;;;;;;5054578;28;20029;-72
2021/03/06 03:27:34;;;;;;;8.15;3.80;;;-2.60;99.90;;;;;;5037027;28;20505;-71
2021/03/06 03:30:00;;;;;;;6.50;3.53;;;-2.60;99.90;;;;;;5036798;28;20500;-71
2021/03/06 03:32:28;;;;;;;9.98;4.10;;;-2.40;99.90;;;;;;5055812;28;20032;-72
2021/03/06 03:34:56;;;;;;;7.32;3.60;;;-2.10;99.90;;;;;;5055373;28;20606;-72
2021/03/06 03:37:24;;;;;;;9.52;4.10;;;-2.00;99.90;;;;;;5054515;28;20113;-71
2021/03/06 03:39:50;;;;;;;9.07;4.18;;;-2.00;99.90;;;;;;5037678;28;20047;-72
2021/03/06 03:42:19;;;;;;;6.68;3.20;;;-1.80;99.90;;;;;;5051805;28;20040;-72
2021/03/06 03:44:45;;;;;;;9.60;3.47;;;-1.80;99.90;;;;;;5055058;28;20037;-72
2021/03/06 03:47:12;;;;;;;6.53;3.33;;;-1.70;99.90;;;;;;5054212;28;20036;-72
2021/03/06 03:49:38;;;;;;;8.25;3.50;;;-1.70;99.90;;;;;;5056690;28;20123;-71
2021/03/06 03:52:04;;;;;;;10.35;3.92;;;-1.60;99.90;;;;;;5037465;28;20056;-72
2021/03/06 03:54:32;;;;;;;8.65;3.85;;;-1.60;99.90;;;;;;5038172;28;20143;-71
2021/03/06 03:56:58;;;;;;;6.80;2.90;;;-1.60;99.90;;;;;;5053037;28;20834;-72
2021/03/06 03:59:25;;;;;;;5.95;3.28;;;-1.60;99.90;;;;;;5055121;28;20036;-72
2021/03/06 04:01:51;;;;;;;12.30;3.33;;;-1.60;99.90;;;;;;5052926;28;20036;-72
2021/03/06 04:04:32;;;;;;;8.48;3.28;;;-1.60;99.90;;;;;;5031043;28;20036;-71
2021/03/06 04:07:00;;;;;;;7.97;3.60;;;-1.60;99.90;;;;;;5053752;28;20054;-72
2021/03/06 04:09:26;;;;;;;10.15;3.53;;;-1.60;99.90;;;;;;5053030;28;20036;-72
2021/03/06 04:11:52;;;;;;;7.18;3.30;;;-1.50;99.90;;;;;;5054345;28;20032;-72
2021/03/06 04:14:18;;;;;;;7.60;3.40;;;-1.60;99.90;;;;;;5053516;28;20068;-72
2021/03/06 04:16:44;;;;;;;7.78;3.75;;;-1.60;99.90;;;;;;5058327;28;20144;-72
2021/03/06 04:19:10;;;;;;;8.05;3.35;;;-1.60;99.90;;;;;;5023338;28;20036;-72
2021/03/06 04:21:36;;;;;;;8.32;3.58;;;-1.60;99.90;;;;;;5057122;28;20048;-72
2021/03/06 04:24:02;;;;;;;8.32;3.65;;;-1.70;99.90;;;;;;5057023;28;20040;-72
2021/03/06 04:26:27;;;;;;;8.68;3.40;;;-1.70;99.90;;;;;;5040577;28;20491;-71
2021/03/06 04:28:53;;;;;;;11.88;3.45;;;-1.70;99.90;;;;;;5040502;28;20147;-72
2021/03/06 04:31:19;;;;;;;8.52;3.88;;;-1.90;99.90;;;;;;5058941;28;20093;-72
2021/03/06 04:33:44;;;;;;;7.20;3.17;;;-1.90;99.90;;;;;;5059177;28;20064;-72
2021/03/06 04:36:11;;;;;;;5.68;3.00;;;-1.90;99.90;;;;;;5057013;28;20040;-72
2021/03/06 04:38:37;;;;;;;7.38;3.47;;;-1.90;99.90;;;;;;5040823;28;20071;-72
2021/03/06 04:41:02;;;;;;;7.68;3.33;;;-1.90;99.90;;;;;;5039640;28;20139;-72
2021/03/06 04:43:28;;;;;;;5.65;3.10;;;-1.90;99.90;;;;;;5039990;28;20036;-72
2021/03/06 04:45:54;;;;;;;9.85;3.38;;;-1.90;99.90;;;;;;5058448;28;20091;-72
2021/03/06 04:48:20;;;;;;;5.38;3.08;;;-1.90;99.90;;;;;;5048050;28;20035;-72
2021/03/06 04:50:45;;;;;;;6.68;3.33;;;-1.90;99.90;;;;;;5057757;28;20489;-72
2021/03/06 04:53:11;;;;;;;12.10;3.38;;;-1.80;99.90;;;;;;5052443;28;20025;-72
2021/03/06 04:55:37;;;;;;;7.57;3.30;;;-1.70;99.90;;;;;;5052502;28;20040;-72
2021/03/06 04:58:03;;;;;;;6.40;3.20;;;-1.70;99.90;;;;;;5016111;28;20044;-72
2021/03/06 05:00:28;;;;;;;8.70;3.30;;;-1.70;99.90;;;;;;5051849;28;20050;-72
2021/03/06 05:02:55;;;;;;;6.85;3.10;;;-1.70;99.90;;;;;;5046738;28;20036;-72
2021/03/06 05:05:21;;;;;;;8.85;3.53;;;-1.80;99.90;;;;;;5057948;28;20035;-72
2021/03/06 05:07:46;;;;;;;8.77;3.30;;;-1.80;99.90;;;;;;5056067;28;20040;-72
2021/03/06 05:10:12;;;;;;;11.02;3.80;;;-1.80;99.90;;;;;;5040121;28;20539;-72
2021/03/06 05:12:38;;;;;;;6.05;3.00;;;-1.90;99.90;;;;;;5044979;28;20070;-72
2021/03/06 05:15:05;;;;;;;10.48;3.30;;;-1.90;99.90;;;;;;5029658;28;20060;-72
2021/03/06 05:17:31;;;;;;;8.00;3.30;;;-1.90;99.90;;;;;;5038836;28;20083;-72
2021/03/06 05:19:57;;;;;;;5.90;3.00;;;-2.00;99.90;;;;;;5057805;28;20048;-70
2021/03/06 05:22:22;;;;;;;9.57;3.17;;;-1.90;99.90;;;;;;5036946;28;20039;-72
2021/03/06 05:24:48;;;;;;;7.70;3.17;;;-1.90;99.90;;;;;;5057529;28;20641;-72
2021/03/06 05:27:15;;;;;;;7.05;3.58;;;-1.90;99.90;;;;;;5053857;28;20033;-72
2021/03/06 05:29:41;;;;;;;7.53;3.50;;;-1.90;99.90;;;;;;5052770;28;20028;-72
2021/03/06 05:32:07;;;;;;;16.60;3.30;;;-1.90;99.90;;;;;;5057558;28;20407;-72
2021/03/06 05:34:33;;;;;;;7.90;3.75;;;-1.90;99.90;;;;;;5038885;28;20044;-72
2021/03/06 05:36:59;;;;;;;7.30;3.65;;;-1.90;99.90;;;;;;5048791;28;20062;-72
2021/03/06 05:39:25;;;;;;;5.72;3.30;;;-2.00;99.90;;;;;;5050212;28;20110;-72
2021/03/06 05:41:52;;;;;;;6.57;3.20;;;-2.00;99.90;;;;;;5030203;28;20059;-72
2021/03/06 05:44:18;;;;;;;10.07;3.03;;;-2.10;99.90;;;;;;5046354;28;20751;-71
2021/03/06 05:46:44;;;;;;;6.85;3.03;;;-2.00;99.90;;;;;;5038583;28;20040;-72
2021/03/06 05:49:11;;;;;;;6.32;2.28;;;-2.00;99.90;;;;;;5055144;28;20119;-72
2021/03/06 05:51:38;;;;;;;6.47;3.15;;;-2.00;99.90;;;;;;5048283;28;20032;-72
2021/03/06 05:54:12;;;;;;;8.68;2.90;;;-2.10;99.90;;;;;;5056969;28;20086;-72
2021/03/06 05:56:41;;;;;;;7.65;3.20;;;-2.00;99.90;;;;;;5047947;28;20070;-72
2021/03/06 05:59:10;;;;;;;6.20;3.28;;;-2.00;99.90;;;;;;5048514;28;20029;-73
2021/03/06 06:01:37;;;;;;;10.13;3.60;;;-2.00;99.90;;;;;;5053689;28;20040;-72
2021/03/06 06:04:07;;;;;;;13.57;4.07;;;-1.90;99.90;;;;;;5032750;28;20032;-70
2021/03/06 06:06:39;;;;;;;7.93;3.30;;;-1.90;99.90;;;;;;5027849;28;20029;-71
2021/03/06 06:09:08;;;;;;;6.38;3.33;;;-1.80;99.90;;;;;;5022239;28;20055;-70
2021/03/06 06:11:34;;;;;;;12.55;3.40;;;-1.80;99.90;;;;;;5036182;28;20182;-72
2021/03/06 06:14:02;;;;;;;7.95;3.53;;;-1.90;99.90;;;;;;5046340;28;20058;-71
2021/03/06 06:16:29;;;;;;;13.45;3.85;;;-1.90;99.90;;;;;;5034143;28;20037;-80
2021/03/06 06:18:55;;;;;;;9.52;4.20;;;-1.80;99.90;;;;;;5053170;28;20044;-72
2021/03/06 06:21:41;;;;;;;27.63;9.02;;;-1.80;99.90;;;;;;5045734;28;20032;-83
2021/03/06 06:24:15;;;;;;;41.28;15.70;;;-1.80;99.90;;;;;;5051974;28;20036;-71
2021/03/06 06:26:51;;;;;;;32.60;19.27;;;-1.70;99.90;;;;;;5030072;28;20048;-71
2021/03/06 06:29:17;;;;;;;19.10;12.25;;;-1.70;99.90;;;;;;5050937;28;20959;-71
2021/03/06 06:31:53;;;;;;;20.10;11.07;;;-1.70;99.90;;;;;;5056393;28;20043;-71
2021/03/06 06:34:18;;;;;;;40.58;28.70;;;-1.60;99.90;;;;;;5015146;28;20115;-71
2021/03/06 06:36:44;;;;;;;62.03;46.20;;;-1.60;99.90;;;;;;5011361;28;20040;-71
2021/03/06 06:39:11;;;;;;;47.67;28.30;;;-1.50;99.90;;;;;;5008381;28;20111;-74
2021/03/06 06:41:54;;;;;;;53.08;35.05;;;-1.30;99.90;;;;;;5029907;28;20043;-71
2021/03/06 06:44:21;;;;;;;16.73;8.40;;;-1.20;99.90;;;;;;5036018;28;20032;-71
2021/03/06 06:46:49;;;;;;;21.25;10.63;;;-1.10;99.90;;;;;;5037455;28;20040;-71
2021/03/06 06:49:15;;;;;;;58.88;28.75;;;-1.00;99.90;;;;;;5048281;28;20039;-71
2021/03/06 06:52:01;;;;;;;26.60;10.02;;;-0.90;99.90;;;;;;5030415;28;20286;-71
2021/03/06 06:54:27;;;;;;;;;;;-0.70;99.90;;;;;;5054205;28;20052;-72
2021/03/06 06:57:13;;;;;;;30.42;13.32;;;-0.50;99.90;;;;;;5042773;28;20084;-71
2021/03/06 06:59:50;;;;;;;14.48;5.65;;;-0.60;99.90;;;;;;5040695;28;20043;-69
2021/03/06 07:02:16;;;;;;;10.82;4.47;;;-0.50;99.90;;;;;;5031719;28;20139;-72
2021/03/06 07:05:05;;;;;;;41.75;15.73;;;-0.50;99.90;;;;;;5024414;28;20037;-72
2021/03/06 07:07:39;;;;;;;48.83;16.17;;;-0.50;99.90;;;;;;5019736;28;20064;-72
2021/03/06 07:10:10;;;;;;;41.38;16.00;;;-0.50;99.90;;;;;;5055780;28;20086;-71
2021/03/06 07:12:45;;;;;;;51.67;17.05;;;-0.50;99.90;;;;;;5047059;28;20052;-72
2021/03/06 07:15:16;;;;;;;58.70;20.05;;;-0.30;99.90;;;;;;5052915;28;20331;-71
2021/03/06 07:17:43;;;;;;;36.40;12.15;;;-0.30;99.90;;;;;;5050722;28;20719;-71
2021/03/06 07:20:31;;;;;;;28.45;10.75;;;-0.20;99.90;;;;;;5032031;28;20094;-72
2021/03/06 07:23:10;;;;;;;16.73;5.78;;;-0.20;99.90;;;;;;5026072;28;20049;-71
2021/03/06 07:25:36;;;;;;;7.57;3.45;;;0.00;99.90;;;;;;5033681;28;20544;-71
2021/03/06 07:28:01;;;;;;;9.07;4.10;;;0.20;99.90;;;;;;5053019;28;20116;-72
2021/03/06 07:30:27;;;;;;;13.13;4.20;;;0.20;99.90;;;;;;5053406;28;20401;-72
2021/03/06 07:32:57;;;;;;;8.45;3.75;;;0.20;99.90;;;;;;5009160;28;20057;-72
2021/03/06 07:35:24;;;;;;;15.60;4.40;;;0.40;99.90;;;;;;5043358;28;20028;-72
2021/03/06 07:37:57;;;;;;;9.75;3.58;;;0.70;99.90;;;;;;5034002;28;20443;-72
2021/03/06 07:40:32;;;;;;;7.90;3.50;;;1.00;99.90;;;;;;5041319;28;20685;-72
2021/03/06 07:42:59;;;;;;;11.73;3.90;;;1.30;99.90;;;;;;5052590;28;20637;-72
2021/03/06 07:45:27;;;;;;;12.25;3.55;;;1.50;99.90;;;;;;5053562;28;20039;-72
2021/03/06 07:48:09;;;;;;;10.45;3.28;;;1.50;99.90;;;;;;5049265;28;20075;-71
2021/03/06 07:50:38;;;;;;;14.25;3.72;;;1.60;99.90;;;;;;5057019;28;20037;-72
2021/03/06 07:53:04;;;;;;;12.20;3.42;;;1.60;99.90;;;;;;5052018;28;20045;-71
2021/03/06 07:55:32;;;;;;;7.78;3.75;;;1.60;99.90;;;;;;5033858;28;20068;-71
2021/03/06 07:58:10;;;;;;;7.53;3.08;;;1.90;99.90;;;;;;5041544;28;20039;-72
2021/03/06 08:00:49;;;;;;;14.02;4.50;;;2.10;99.90;;;;;;5039612;28;20538;-71
2021/03/06 08:03:27;;;;;;;15.32;3.60;;;2.20;99.90;;;;;;5059359;28;20039;-71
2021/03/06 08:06:00;;;;;;;15.13;3.08;;;2.40;99.90;;;;;;5056093;28;20075;-71
2021/03/06 08:08:32;;;;;;;10.95;3.20;;;2.50;99.90;;;;;;5020360;28;20062;-71
2021/03/06 08:11:10;;;;;;;15.77;5.93;;;2.40;99.90;;;;;;5056268;28;20897;-72
2021/03/06 08:13:38;;;;;;;13.02;2.85;;;2.60;99.90;;;;;;5038433;28;20041;-71
2021/03/06 08:16:28;;;;;;;8.63;2.75;;;2.90;99.90;;;;;;5050006;28;20047;-73
2021/03/06 08:18:57;;;;;;;7.88;3.05;;;3.10;99.90;;;;;;5038765;28;20024;-72
2021/03/06 08:21:35;;;;;;;9.07;2.63;;;3.10;99.90;;;;;;5058484;28;20117;-72
2021/03/06 08:24:18;;;;;;;9.60;2.45;;;3.30;99.90;;;;;;5047369;28;20020;-72
2021/03/06 08:27:03;;;;;;;23.65;6.72;;;3.40;99.90;;;;;;5027465;28;20033;-72
2021/03/06 08:29:29;;;;;;;11.33;3.17;;;3.50;99.90;;;;;;5039909;28;20037;-72
2021/03/06 08:32:00;;;;;;;11.30;2.83;;;3.50;99.90;;;;;;5032670;28;20677;-71
2021/03/06 08:34:38;;;;;;;9.27;3.10;;;3.60;99.90;;;;;;5054384;28;20070;-72
2021/03/06 08:37:19;;;;;;;6.85;3.10;;;3.50;99.90;;;;;;5052163;28;20040;-69
2021/03/06 08:39:53;;;;;;;11.18;3.60;;;3.80;99.90;;;;;;5059984;28;20438;-72
2021/03/06 08:42:20;;;;;;;19.08;7.25;;;4.00;99.90;;;;;;5041642;28;20051;-73
2021/03/06 08:44:47;;;;;;;10.13;5.20;;;4.20;99.90;;;;;;5054709;28;20075;-73
2021/03/06 08:47:27;;;;;;;25.42;11.15;;;4.20;99.90;;;;;;5040828;28;20025;-72
2021/03/06 08:49:58;;;;;;;9.63;5.03;;;4.10;99.90;;;;;;5052411;28;20048;-73
2021/03/06 08:52:26;;;;;;;24.05;12.40;;;4.00;99.90;;;;;;5054680;28;20437;-73
2021/03/06 08:54:52;;;;;;;17.35;6.43;;;4.10;99.90;;;;;;5036471;28;20036;-73
2021/03/06 08:57:34;;;;;;;22.65;11.73;;;4.30;99.90;;;;;;5051536;28;20037;-72
2021/03/06 09:00:06;;;;;;;16.60;7.05;;;4.50;99.90;;;;;;5059290;28;20702;-73
2021/03/06 09:02:34;;;;;;;25.83;10.55;;;4.60;99.90;;;;;;5052748;28;20132;-73
2021/03/06 09:05:04;;;;;;;26.60;12.20;;;4.70;99.90;;;;;;5054097;28;20038;-73
2021/03/06 09:07:34;;;;;;;15.18;4.63;;;4.90;99.90;;;;;;5032359;28;20033;-74
2021/03/06 09:10:20;;;;;;;13.85;3.55;;;5.10;99.90;;;;;;5032070;28;20505;-74
2021/03/06 09:12:49;;;;;;;19.25;6.18;;;5.00;99.90;;;;;;5050109;28;20037;-73
2021/03/06 09:15:29;;;;;;;14.57;4.70;;;4.90;99.90;;;;;;5032659;28;20530;-73
2021/03/06 09:17:55;;;;;;;18.25;6.57;;;4.70;99.90;;;;;;5046228;28;20032;-73
2021/03/06 09:20:21;;;;;;;20.45;3.83;;;4.70;99.90;;;;;;5053017;28;20037;-73
2021/03/06 09:22:49;;;;;;;9.00;2.90;;;4.60;99.90;;;;;;5049789;28;20662;-73
2021/03/06 09:25:30;;;;;;;19.85;4.63;;;4.40;99.90;;;;;;5032171;28;20039;-73
2021/03/06 09:27:56;;;;;;;22.27;5.38;;;4.40;99.90;;;;;;5030915;28;20037;-73
2021/03/06 09:30:39;;;;;;;11.70;3.50;;;4.50;99.90;;;;;;5055871;28;20033;-73
2021/03/06 09:33:24;;;;;;;14.13;2.80;;;4.40;99.90;;;;;;5053361;28;20033;-78
2021/03/06 09:35:56;;;;;;;9.23;2.60;;;4.50;99.90;;;;;;5051313;28;20052;-75
2021/03/06 09:38:22;;;;;;;13.88;3.60;;;4.50;99.90;;;;;;5036666;28;20827;-76
2021/03/06 09:40:47;;;;;;;11.00;2.95;;;4.50;99.90;;;;;;5045842;28;20139;-75
2021/03/06 09:43:15;;;;;;;10.55;3.78;;;4.50;99.90;;;;;;5047872;28;20032;-76
2021/03/06 09:45:45;;;;;;;16.83;4.70;;;4.50;99.90;;;;;;5032009;28;20044;-77
2021/03/06 09:48:29;;;;;;;11.05;4.50;;;4.50;99.90;;;;;;5037238;28;20024;-76
2021/03/06 09:50:58;;;;;;;12.88;3.50;;;4.60;99.90;;;;;;5039423;28;20117;-75
2021/03/06 09:53:26;;;;;;;20.20;6.57;;;4.70;99.90;;;;;;5052753;28;20033;-75
2021/03/06 09:56:03;;;;;;;15.10;4.30;;;4.80;99.90;;;;;;5032397;28;20039;-76
2021/03/06 09:58:30;;;;;;;8.07;2.78;;;4.90;99.90;;;;;;5047870;28;20287;-75
2021/03/06 10:01:17;;;;;;;9.38;3.90;;;5.00;99.90;;;;;;5055279;28;20542;-78
2021/03/06 10:03:44;;;;;;;13.57;3.53;;;5.10;99.90;;;;;;5053856;28;20044;-75
2021/03/06 10:06:10;;;;;;;22.27;4.35;;;5.20;99.90;;;;;;5047510;28;20033;-75
2021/03/06 10:08:45;;;;;;;10.90;3.35;;;5.40;99.90;;;;;;5054402;28;20064;-75
2021/03/06 10:11:13;;;;;;;10.57;2.58;;;5.50;99.90;;;;;;5047465;28;20032;-74
2021/03/06 10:13:41;;;;;;;13.95;2.70;;;5.50;99.90;;;;;;5044526;28;20037;-76
2021/03/06 10:16:07;;;;;;;9.90;2.60;;;5.30;99.90;;;;;;5028437;28;20591;-76
2021/03/06 10:18:37;;;;;;;9.32;2.40;;;5.40;99.90;;;;;;5034470;28;20040;-72
2021/03/06 10:21:18;;;;;;;10.75;2.90;;;5.50;99.90;;;;;;5033014;28;20032;-75
2021/03/06 10:23:45;;;;;;;12.10;2.80;;;5.30;99.90;;;;;;5045053;28;20044;-76
2021/03/06 10:26:14;;;;;;;8.20;2.78;;;5.00;99.90;;;;;;5044364;28;20029;-72
2021/03/06 10:28:39;;;;;;;16.58;4.85;;;5.10;99.90;;;;;;5042912;28;20032;-75
2021/03/06 10:31:05;;;;;;;10.35;2.75;;;5.30;99.90;;;;;;5041831;28;20040;-75
2021/03/06 10:33:38;;;;;;;13.35;3.17;;;5.50;99.90;;;;;;5037144;28;20059;-75
2021/03/06 10:36:16;;;;;;;16.60;3.63;;;5.60;99.90;;;;;;5050591;28;20029;-76
2021/03/06 10:38:41;;;;;;;14.52;5.43;;;5.50;99.90;;;;;;5047832;28;20032;-75
2021/03/06 10:41:16;;;;;;;10.27;3.97;;;5.20;99.90;;;;;;5052084;28;20035;-76
2021/03/06 10:43:50;;;;;;;11.90;2.70;;;5.10;99.90;;;;;;5049956;28;20075;-74
2021/03/06 10:46:19;;;;;;;15.43;4.47;;;4.80;99.90;;;;;;5030167;28;20409;-76
2021/03/06 10:48:58;;;;;;;10.32;3.42;;;4.50;99.90;;;;;;5032706;28;20515;-75
2021/03/06 10:51:39;;;;;;;7.40;3.15;;;4.10;99.90;;;;;;5030434;28;20546;-79
2021/03/06 10:54:06;;;;;;;14.60;3.88;;;4.00;99.90;;;;;;5037553;28;20040;-77
2021/03/06 10:56:33;;;;;;;11.30;4.32;;;3.80;99.90;;;;;;5051588;28;20051;-79
2021/03/06 10:58:58;;;;;;;11.68;4.13;;;3.90;99.90;;;;;;5031480;28;20047;-77
2021/03/06 11:01:24;;;;;;;12.70;3.47;;;3.90;99.90;;;;;;5049323;28;20032;-79
2021/03/06 11:03:52;;;;;;;8.13;3.63;;;4.10;99.90;;;;;;5028368;28;20037;-77
2021/03/06 11:06:19;;;;;;;10.65;3.72;;;4.10;99.90;;;;;;5013221;28;20044;-73
2021/03/06 11:08:59;;;;;;;13.77;4.40;;;4.20;99.90;;;;;;5030863;28;20033;-73
2021/03/06 11:11:25;;;;;;;11.43;4.30;;;4.20;99.90;;;;;;5049075;28;20069;-75
2021/03/06 11:13:51;;;;;;;14.95;5.07;;;4.20;99.90;;;;;;5034094;28;20044;-73
2021/03/06 11:16:34;;;;;;;14.93;4.60;;;4.20;99.90;;;;;;5028826;28;20037;-73
2021/03/06 11:19:00;;;;;;;13.70;5.28;;;4.40;99.90;;;;;;5029834;28;20037;-73
2021/03/06 11:21:25;;;;;;;16.10;4.63;;;4.40;99.90;;;;;;5024714;28;20090;-74
2021/03/06 11:23:51;;;;;;;15.52;4.68;;;4.30;99.90;;;;;;5033211;28;20456;-74
2021/03/06 11:26:17;;;;;;;19.77;7.28;;;4.40;99.90;;;;;;5056250;28;20027;-73
2021/03/06 11:28:42;;;;;;;27.67;11.25;;;4.50;99.90;;;;;;5041217;28;20374;-73
2021/03/06 11:31:08;;;;;;;12.80;4.80;;;4.40;99.90;;;;;;5034178;28;20028;-73
2021/03/06 11:33:34;;;;;;;9.98;5.07;;;4.50;99.90;;;;;;5047528;28;20663;-74
2021/03/06 11:35:59;;;;;;;15.30;6.25;;;4.60;99.90;;;;;;5052574;28;20105;-74
2021/03/06 11:38:25;;;;;;;27.25;7.65;;;4.70;99.90;;;;;;5039531;28;20045;-73
2021/03/06 11:40:53;;;;;;;16.33;7.43;;;4.80;99.90;;;;;;5034807;28;20021;-74
2021/03/06 11:43:20;;;;;;;20.08;6.55;;;5.00;99.90;;;;;;5051677;28;20074;-74
2021/03/06 11:45:46;;;;;;;10.85;4.00;;;5.00;99.90;;;;;;5013135;28;20052;-78
2021/03/06 11:48:12;;;;;;;10.55;4.10;;;5.00;99.90;;;;;;5037907;28;20103;-78
2021/03/06 11:50:42;;;;;;;15.40;3.85;;;4.90;99.90;;;;;;5032573;28;20047;-78
2021/03/06 11:53:08;;;;;;;7.95;3.95;;;4.90;99.90;;;;;;5042827;28;20095;-78
2021/03/06 11:55:34;;;;;;;10.65;4.43;;;4.90;99.90;;;;;;5049116;28;20033;-78
2021/03/06 11:58:00;;;;;;;12.93;4.50;;;4.90;99.90;;;;;;5024008;28;20043;-77
2021/03/06 12:00:28;;;;;;;12.23;4.13;;;5.10;99.90;;;;;;5055585;28;20036;-77
2021/03/06 12:02:54;;;;;;;10.30;4.13;;;5.00;99.90;;;;;;5055383;28;20384;-78
2021/03/06 12:05:20;;;;;;;9.45;4.00;;;4.90;99.90;;;;;;5045852;28;20089;-77
2021/03/06 12:07:47;;;;;;;18.27;6.80;;;4.90;99.90;;;;;;5038174;28;20512;-78
2021/03/06 12:10:15;;;;;;;14.27;4.47;;;4.90;99.90;;;;;;5050334;28;20082;-75
2021/03/06 12:12:43;;;;;;;11.05;5.63;;;4.90;99.90;;;;;;5037343;28;20379;-78
2021/03/06 12:15:10;;;;;;;15.95;4.82;;;5.10;99.90;;;;;;5014491;28;20044;-77
2021/03/06 12:17:36;;;;;;;14.50;5.55;;;5.10;99.90;;;;;;5032532;28;20032;-77
2021/03/06 12:20:03;;;;;;;16.17;6.47;;;5.10;99.90;;;;;;5034605;28;20756;-73
2021/03/06 12:22:29;;;;;;;20.25;7.00;;;5.00;99.90;;;;;;5045731;28;20041;-76
2021/03/06 12:24:55;;;;;;;16.25;7.00;;;4.90;99.90;;;;;;5049392;28;20025;-77
2021/03/06 12:27:20;;;;;;;16.52;7.00;;;4.70;99.90;;;;;;5034095;28;20032;-77
2021/03/06 12:29:46;;;;;;;17.17;5.38;;;4.70;99.90;;;;;;5033907;28;20039;-77
2021/03/06 12:32:12;;;;;;;10.75;4.35;;;4.70;99.90;;;;;;5054286;28;20672;-77
2021/03/06 12:34:38;;;;;;;14.93;5.07;;;4.70;99.90;;;;;;5055262;28;20033;-75
2021/03/06 12:37:04;;;;;;;11.00;3.88;;;4.80;99.90;;;;;;5049243;28;20044;-77
2021/03/06 12:39:31;;;;;;;13.20;4.97;;;4.90;99.90;;;;;;5050904;28;20413;-76
2021/03/06 12:41:57;;;;;;;15.07;4.80;;;4.90;99.90;;;;;;5029434;28;20047;-76
2021/03/06 12:44:23;;;;;;;12.02;4.75;;;5.00;99.90;;;;;;5048292;28;20025;-76
2021/03/06 12:46:49;;;;;;;12.38;4.80;;;5.20;99.90;;;;;;5051057;28;20036;-75
2021/03/06 12:49:19;;;;;;;13.93;5.03;;;5.40;99.90;;;;;;5057418;28;20043;-78
2021/03/06 12:51:45;;;;;;;9.85;4.57;;;5.70;99.90;;;;;;5046647;28;20051;-75
2021/03/06 12:54:11;;;;;;;8.25;3.70;;;6.30;99.90;;;;;;5051304;28;20033;-75
2021/03/06 12:56:37;;;;;;;8.43;3.40;;;6.30;99.90;;;;;;5032590;28;20441;-78